sensor_id;sensor_type;location;lat;lon;timestamp;pressure;altitude;pressure_sealevel;temperature;humidity
43934;BME280;59081;42.706;23.306;2024-03-02T00:00:59;94451.53;;;6.07;100.00
43934;BME280;59081;42.706;23.306;2024-03-02T00:06:00;94527.41;;;6.55;100.00
43934;BME280;59081;42.706;23.306;2024-03-02T00:11:01;94563.56;;;6.63;100.00
43934;BME280;59081;42.706;23.306;2024-03-02T00:16:03;94500.88;;;6.20;100.00
43934;BME280;59081;42.706;23.306;2024-03-02T00:21:06;94660.19;;;7.28;100.00
43934;BME280;59081;42.706;23.306;2024-03-02T00:26:11;94648.47;;;7.28;100.00
43934;BME280;59081;42.706;23.306;2024-03-02T00:31:13;94647.19;;;7.32;100.00
43934;BME280;59081;42.706;23.306;2024-03-02T00:36:15;94505.81;;;6.25;100.00
43934;BME280;59081;42.706;23.306;2024-03-02T00:41:27;94547.06;;;6.67;100.00
43934;BME280;59081;42.706;23.306;2024-03-02T00:46:30;94506.19;;;6.59;100.00
43934;BME280;59081;42.706;23.306;2024-03-02T00:51:34;94551.09;;;6.78;100.00
43934;BME280;59081;42.706;23.306;2024-03-02T00:56:35;94576.41;;;6.98;100.00
43934;BME280;59081;42.706;23.306;2024-03-02T01:01:35;94493.69;;;6.58;100.00
43934;BME280;59081;42.706;23.306;2024-03-02T01:06:36;94424.09;;;6.11;100.00
43934;BME280;59081;42.706;23.306;2024-03-02T01:11:36;94566.50;;;7.05;100.00
43934;BME280;59081;42.706;23.306;2024-03-02T01:16:37;94562.47;;;7.25;100.00
43934;BME280;59081;42.706;23.306;2024-03-02T01:21:41;94622.13;;;7.79;100.00
43934;BME280;59081;42.706;23.306;2024-03-02T01:26:44;94626.03;;;7.94;100.00
43934;BME280;59081;42.706;23.306;2024-03-02T01:31:45;94494.34;;;6.95;100.00
43934;BME280;59081;42.706;23.306;2024-03-02T01:36:47;94516.88;;;7.31;100.00
43934;BME280;59081;42.706;23.306;2024-03-02T01:41:47;94524.69;;;7.33;100.00
43934;BME280;59081;42.706;23.306;2024-03-02T01:46:48;94484.59;;;6.94;100.00
43934;BME280;59081;42.706;23.306;2024-03-02T01:51:49;94414.53;;;6.51;100.00
43934;BME280;59081;42.706;23.306;2024-03-02T01:56:49;94436.44;;;6.51;100.00
43934;BME280;59081;42.706;23.306;2024-03-02T02:01:50;94607.03;;;7.42;100.00
43934;BME280;59081;42.706;23.306;2024-03-02T02:06:51;94375.84;;;6.04;100.00
43934;BME280;59081;42.706;23.306;2024-03-02T02:11:52;94429.50;;;6.14;100.00
43934;BME280;59081;42.706;23.306;2024-03-02T02:16:52;94450.81;;;6.39;100.00
43934;BME280;59081;42.706;23.306;2024-03-02T02:21:53;94485.47;;;6.58;100.00
43934;BME280;59081;42.706;23.306;2024-03-02T02:26:53;94589.88;;;7.09;100.00
43934;BME280;59081;42.706;23.306;2024-03-02T02:31:54;94398.56;;;6.01;100.00
43934;BME280;59081;42.706;23.306;2024-03-02T02:36:54;94588.31;;;6.92;100.00
43934;BME280;59081;42.706;23.306;2024-03-02T02:41:55;94524.47;;;6.95;100.00
43934;BME280;59081;42.706;23.306;2024-03-02T02:46:55;94487.97;;;6.53;100.00
43934;BME280;59081;42.706;23.306;2024-03-02T02:51:56;94500.38;;;6.74;100.00
43934;BME280;59081;42.706;23.306;2024-03-02T02:56:57;94525.06;;;7.03;100.00
43934;BME280;59081;42.706;23.306;2024-03-02T03:01:57;94514.91;;;6.87;100.00
43934;BME280;59081;42.706;23.306;2024-03-02T03:06:58;94587.97;;;7.22;100.00
43934;BME280;59081;42.706;23.306;2024-03-02T03:11:59;94589.44;;;7.27;100.00
43934;BME280;59081;42.706;23.306;2024-03-02T03:16:59;94513.47;;;6.82;100.00
43934;BME280;59081;42.706;23.306;2024-03-02T03:22:00;94521.38;;;6.93;100.00
43934;BME280;59081;42.706;23.306;2024-03-02T03:27:00;94571.19;;;7.20;100.00
43934;BME280;59081;42.706;23.306;2024-03-02T03:32:01;94539.72;;;6.96;100.00
43934;BME280;59081;42.706;23.306;2024-03-02T03:37:02;94548.84;;;7.22;100.00
43934;BME280;59081;42.706;23.306;2024-03-02T03:42:03;94527.38;;;7.20;100.00
43934;BME280;59081;42.706;23.306;2024-03-02T03:47:04;94527.72;;;7.51;100.00
43934;BME280;59081;42.706;23.306;2024-03-02T03:52:04;94463.22;;;7.05;100.00
43934;BME280;59081;42.706;23.306;2024-03-02T03:57:05;94528.78;;;7.41;100.00
43934;BME280;59081;42.706;23.306;2024-03-02T04:02:05;94558.66;;;7.36;100.00
43934;BME280;59081;42.706;23.306;2024-03-02T04:07:07;94515.94;;;7.09;100.00
43934;BME280;59081;42.706;23.306;2024-03-02T04:12:07;94522.66;;;7.21;100.00
43934;BME280;59081;42.706;23.306;2024-03-02T04:17:08;94522.03;;;7.29;100.00
43934;BME280;59081;42.706;23.306;2024-03-02T04:22:08;94495.25;;;7.21;100.00
43934;BME280;59081;42.706;23.306;2024-03-02T04:27:09;94605.91;;;8.14;100.00
43934;BME280;59081;42.706;23.306;2024-03-02T04:32:09;94509.97;;;7.56;100.00
43934;BME280;59081;42.706;23.306;2024-03-02T04:37:11;94598.41;;;7.73;100.00
43934;BME280;59081;42.706;23.306;2024-03-02T04:42:12;94495.19;;;7.24;100.00
43934;BME280;59081;42.706;23.306;2024-03-02T04:47:13;94407.63;;;6.76;100.00
43934;BME280;59081;42.706;23.306;2024-03-02T04:52:13;94476.59;;;6.87;100.00
43934;BME280;59081;42.706;23.306;2024-03-02T04:57:14;94469.56;;;6.86;100.00
43934;BME280;59081;42.706;23.306;2024-03-02T05:02:14;94510.09;;;7.07;100.00
43934;BME280;59081;42.706;23.306;2024-03-02T05:07:15;94505.97;;;7.15;100.00
43934;BME280;59081;42.706;23.306;2024-03-02T05:12:16;94553.78;;;7.72;100.00
43934;BME280;59081;42.706;23.306;2024-03-02T05:17:41;94629.94;;;8.22;100.00
43934;BME280;59081;42.706;23.306;2024-03-02T05:22:45;94520.59;;;7.54;100.00
43934;BME280;59081;42.706;23.306;2024-03-02T05:27:47;94636.13;;;8.26;100.00
43934;BME280;59081;42.706;23.306;2024-03-02T05:32:47;94538.75;;;7.48;100.00
43934;BME280;59081;42.706;23.306;2024-03-02T05:37:48;94616.91;;;7.97;100.00
43934;BME280;59081;42.706;23.306;2024-03-02T05:42:49;94644.19;;;8.17;100.00
43934;BME280;59081;42.706;23.306;2024-03-02T05:47:49;94544.50;;;7.53;100.00
43934;BME280;59081;42.706;23.306;2024-03-02T05:52:50;94572.09;;;7.75;100.00
43934;BME280;59081;42.706;23.306;2024-03-02T05:57:50;94553.97;;;7.65;100.00
43934;BME280;59081;42.706;23.306;2024-03-02T06:03:17;94543.94;;;7.29;100.00
43934;BME280;59081;42.706;23.306;2024-03-02T06:08:17;94468.88;;;6.82;100.00
43934;BME280;59081;42.706;23.306;2024-03-02T06:13:18;94578.00;;;7.28;100.00
43934;BME280;59081;42.706;23.306;2024-03-02T06:18:19;94421.78;;;5.93;100.00
43934;BME280;59081;42.706;23.306;2024-03-02T06:23:19;94538.16;;;6.46;100.00
43934;BME280;59081;42.706;23.306;2024-03-02T06:28:20;94632.81;;;6.96;100.00
43934;BME280;59081;42.706;23.306;2024-03-02T06:33:21;94575.03;;;6.58;100.00
43934;BME280;59081;42.706;23.306;2024-03-02T06:38:21;94612.28;;;6.88;100.00
43934;BME280;59081;42.706;23.306;2024-03-02T06:43:22;94599.38;;;6.36;100.00
43934;BME280;59081;42.706;23.306;2024-03-02T06:48:23;94596.06;;;6.61;100.00
43934;BME280;59081;42.706;23.306;2024-03-02T06:53:24;94608.63;;;6.58;100.00
43934;BME280;59081;42.706;23.306;2024-03-02T06:58:25;94517.78;;;5.75;100.00
43934;BME280;59081;42.706;23.306;2024-03-02T07:03:26;94625.09;;;6.75;100.00
43934;BME280;59081;42.706;23.306;2024-03-02T07:08:26;94694.94;;;7.15;100.00
43934;BME280;59081;42.706;23.306;2024-03-02T07:13:27;94582.09;;;6.39;100.00
43934;BME280;59081;42.706;23.306;2024-03-02T07:18:28;94703.59;;;7.14;100.00
43934;BME280;59081;42.706;23.306;2024-03-02T07:23:28;94577.16;;;6.50;100.00
43934;BME280;59081;42.706;23.306;2024-03-02T07:28:29;94589.31;;;6.66;100.00
43934;BME280;59081;42.706;23.306;2024-03-02T07:33:30;94606.56;;;6.46;100.00
43934;BME280;59081;42.706;23.306;2024-03-02T07:38:33;94566.34;;;6.27;100.00
43934;BME280;59081;42.706;23.306;2024-03-02T07:43:35;94575.38;;;6.24;100.00
43934;BME280;59081;42.706;23.306;2024-03-02T07:48:36;94516.00;;;5.88;100.00
43934;BME280;59081;42.706;23.306;2024-03-02T07:53:36;94719.09;;;7.20;100.00
43934;BME280;59081;42.706;23.306;2024-03-02T07:58:37;94571.31;;;6.32;100.00
43934;BME280;59081;42.706;23.306;2024-03-02T08:03:37;94472.81;;;5.80;100.00
43934;BME280;59081;42.706;23.306;2024-03-02T08:08:39;94581.34;;;6.39;100.00
43934;BME280;59081;42.706;23.306;2024-03-02T08:13:39;94645.59;;;6.67;100.00
43934;BME280;59081;42.706;23.306;2024-03-02T08:18:40;94587.25;;;6.17;100.00
43934;BME280;59081;42.706;23.306;2024-03-02T08:23:47;94506.06;;;6.14;100.00
43934;BME280;59081;42.706;23.306;2024-03-02T08:28:53;94507.50;;;5.63;100.00
43934;BME280;59081;42.706;23.306;2024-03-02T08:33:54;94622.81;;;6.53;100.00
43934;BME280;59081;42.706;23.306;2024-03-02T08:38:56;94486.53;;;5.76;100.00
43934;BME280;59081;42.706;23.306;2024-03-02T08:43:57;94724.09;;;7.58;100.00
43934;BME280;59081;42.706;23.306;2024-03-02T08:48:59;94623.75;;;6.99;100.00
43934;BME280;59081;42.706;23.306;2024-03-02T08:54:01;94608.25;;;7.09;100.00
43934;BME280;59081;42.706;23.306;2024-03-02T09:20:28;94699.50;;;8.16;100.00
43934;BME280;59081;42.706;23.306;2024-03-02T09:25:30;94626.38;;;7.80;100.00
43934;BME280;59081;42.706;23.306;2024-03-02T09:30:30;94657.19;;;8.00;100.00
43934;BME280;59081;42.706;23.306;2024-03-02T09:35:32;94663.66;;;8.23;100.00
43934;BME280;59081;42.706;23.306;2024-03-02T09:40:32;94751.84;;;10.66;100.00
43934;BME280;59081;42.706;23.306;2024-03-02T09:45:33;94629.50;;;10.10;100.00
43934;BME280;59081;42.706;23.306;2024-03-02T09:50:34;94594.72;;;10.38;100.00
43934;BME280;59081;42.706;23.306;2024-03-02T09:55:35;94686.66;;;10.94;100.00
43934;BME280;59081;42.706;23.306;2024-03-02T10:00:35;94691.69;;;10.21;100.00
43934;BME280;59081;42.706;23.306;2024-03-02T10:05:36;94748.84;;;9.91;100.00
43934;BME280;59081;42.706;23.306;2024-03-02T10:10:40;94746.69;;;9.86;100.00
43934;BME280;59081;42.706;23.306;2024-03-02T10:15:43;94683.94;;;9.34;100.00
43934;BME280;59081;42.706;23.306;2024-03-02T10:20:43;94686.81;;;9.18;100.00
43934;BME280;59081;42.706;23.306;2024-03-02T10:25:45;94548.84;;;8.09;100.00
43934;BME280;59081;42.706;23.306;2024-03-02T10:30:50;94549.78;;;7.60;100.00
43934;BME280;59081;42.706;23.306;2024-03-02T10:35:52;94752.97;;;9.36;100.00
43934;BME280;59081;42.706;23.306;2024-03-02T10:40:53;94688.34;;;9.31;100.00
43934;BME280;59081;42.706;23.306;2024-03-02T10:45:57;94690.06;;;9.38;100.00
43934;BME280;59081;42.706;23.306;2024-03-02T10:50:58;94696.00;;;9.49;100.00
43934;BME280;59081;42.706;23.306;2024-03-02T10:56:03;94592.41;;;8.73;100.00
43934;BME280;59081;42.706;23.306;2024-03-02T11:01:08;94723.94;;;9.60;100.00
43934;BME280;59081;42.706;23.306;2024-03-02T11:06:12;94612.50;;;8.96;100.00
43934;BME280;59081;42.706;23.306;2024-03-02T11:11:23;94724.84;;;9.32;100.00
43934;BME280;59081;42.706;23.306;2024-03-02T11:16:34;94649.09;;;9.05;100.00
43934;BME280;59081;42.706;23.306;2024-03-02T11:21:36;94573.28;;;8.70;100.00
43934;BME280;59081;42.706;23.306;2024-03-02T11:26:38;94637.88;;;9.25;100.00
43934;BME280;59081;42.706;23.306;2024-03-02T11:31:58;94725.56;;;9.83;100.00
43934;BME280;59081;42.706;23.306;2024-03-02T11:37:04;94674.72;;;9.75;100.00
43934;BME280;59081;42.706;23.306;2024-03-02T11:42:08;94717.03;;;10.03;100.00
43934;BME280;59081;42.706;23.306;2024-03-02T11:47:11;94524.31;;;8.81;100.00
43934;BME280;59081;42.706;23.306;2024-03-02T11:52:15;94618.34;;;8.98;100.00
43934;BME280;59081;42.706;23.306;2024-03-02T11:57:17;94715.75;;;9.82;100.00
43934;BME280;59081;42.706;23.306;2024-03-02T12:02:19;94517.88;;;7.95;100.00
43934;BME280;59081;42.706;23.306;2024-03-02T12:07:21;94583.16;;;8.67;100.00
43934;BME280;59081;42.706;23.306;2024-03-02T12:12:22;94710.84;;;9.64;100.00
43934;BME280;59081;42.706;23.306;2024-03-02T12:32:57;94535.06;;;8.63;100.00
43934;BME280;59081;42.706;23.306;2024-03-02T12:38:03;94545.19;;;8.79;100.00
43934;BME280;59081;42.706;23.306;2024-03-02T12:43:08;94608.97;;;9.08;100.00
43934;BME280;59081;42.706;23.306;2024-03-02T12:48:13;94607.44;;;8.94;100.00
43934;BME280;59081;42.706;23.306;2024-03-02T12:53:21;94538.31;;;8.20;100.00
43934;BME280;59081;42.706;23.306;2024-03-02T12:58:22;94531.22;;;8.35;100.00
43934;BME280;59081;42.706;23.306;2024-03-02T13:08:45;94627.31;;;9.24;100.00
43934;BME280;59081;42.706;23.306;2024-03-02T13:13:48;94717.06;;;9.90;100.00
43934;BME280;59081;42.706;23.306;2024-03-02T13:18:52;94616.75;;;9.22;100.00
43934;BME280;59081;42.706;23.306;2024-03-02T13:29:11;94721.00;;;9.89;100.00
43934;BME280;59081;42.706;23.306;2024-03-02T13:34:12;94533.44;;;7.98;100.00
43934;BME280;59081;42.706;23.306;2024-03-02T13:44:30;94547.56;;;8.38;100.00
43934;BME280;59081;42.706;23.306;2024-03-02T13:49:40;94610.41;;;8.62;100.00
43934;BME280;59081;42.706;23.306;2024-03-02T13:54:48;94618.06;;;8.54;100.00
43934;BME280;59081;42.706;23.306;2024-03-02T13:59:50;94679.97;;;9.10;100.00
43934;BME280;59081;42.706;23.306;2024-03-02T14:04:52;94557.94;;;8.18;100.00
43934;BME280;59081;42.706;23.306;2024-03-02T14:09:53;94549.44;;;8.42;100.00
43934;BME280;59081;42.706;23.306;2024-03-02T14:14:57;94559.47;;;8.48;100.00
43934;BME280;59081;42.706;23.306;2024-03-02T14:20:02;94644.13;;;8.88;100.00
43934;BME280;59081;42.706;23.306;2024-03-02T14:25:08;94678.44;;;9.34;100.00
43934;BME280;59081;42.706;23.306;2024-03-02T14:30:12;94749.16;;;10.19;100.00
43934;BME280;59081;42.706;23.306;2024-03-02T14:35:13;94646.13;;;9.85;100.00
43934;BME280;59081;42.706;23.306;2024-03-02T14:40:14;94554.50;;;9.41;100.00
43934;BME280;59081;42.706;23.306;2024-03-02T14:45:15;94615.25;;;9.68;100.00
43934;BME280;59081;42.706;23.306;2024-03-02T14:50:19;94570.66;;;9.39;100.00
43934;BME280;59081;42.706;23.306;2024-03-02T14:55:19;94701.31;;;10.03;99.88
43934;BME280;59081;42.706;23.306;2024-03-02T15:00:20;94731.50;;;10.29;100.00
43934;BME280;59081;42.706;23.306;2024-03-02T15:05:21;94570.28;;;9.02;100.00
43934;BME280;59081;42.706;23.306;2024-03-02T15:10:22;94764.13;;;10.05;100.00
43934;BME280;59081;42.706;23.306;2024-03-02T15:15:25;94561.97;;;8.01;100.00
43934;BME280;59081;42.706;23.306;2024-03-02T15:20:27;94642.34;;;8.43;100.00
43934;BME280;59081;42.706;23.306;2024-03-02T15:25:41;94551.38;;;8.28;100.00
43934;BME280;59081;42.706;23.306;2024-03-02T15:36:01;94727.16;;;9.33;100.00
43934;BME280;59081;42.706;23.306;2024-03-02T15:41:06;94773.19;;;9.93;100.00
43934;BME280;59081;42.706;23.306;2024-03-02T15:46:12;94571.22;;;8.61;100.00
43934;BME280;59081;42.706;23.306;2024-03-02T15:51:13;94713.69;;;9.73;100.00
43934;BME280;59081;42.706;23.306;2024-03-02T15:56:14;94654.13;;;9.32;100.00
43934;BME280;59081;42.706;23.306;2024-03-02T16:01:15;94654.00;;;9.36;100.00
43934;BME280;59081;42.706;23.306;2024-03-02T16:06:16;94689.28;;;9.63;100.00
43934;BME280;59081;42.706;23.306;2024-03-02T16:11:18;94778.75;;;10.15;100.00
43934;BME280;59081;42.706;23.306;2024-03-02T16:16:19;94781.53;;;9.89;100.00
43934;BME280;59081;42.706;23.306;2024-03-02T16:21:23;94655.56;;;8.86;100.00
43934;BME280;59081;42.706;23.306;2024-03-02T16:26:26;94568.88;;;8.34;100.00
43934;BME280;59081;42.706;23.306;2024-03-02T16:31:27;94685.13;;;9.20;100.00
43934;BME280;59081;42.706;23.306;2024-03-02T16:36:28;94607.44;;;8.44;100.00
43934;BME280;59081;42.706;23.306;2024-03-02T16:41:32;94782.44;;;9.61;100.00
43934;BME280;59081;42.706;23.306;2024-03-02T16:46:35;94675.56;;;8.87;100.00
43934;BME280;59081;42.706;23.306;2024-03-02T16:51:39;94729.44;;;9.10;100.00
43934;BME280;59081;42.706;23.306;2024-03-02T16:56:42;94596.06;;;8.29;100.00
43934;BME280;59081;42.706;23.306;2024-03-02T17:01:51;94716.25;;;9.17;100.00
43934;BME280;59081;42.706;23.306;2024-03-02T17:06:59;94617.22;;;8.57;100.00
43934;BME280;59081;42.706;23.306;2024-03-02T17:12:01;94686.56;;;8.99;100.00
43934;BME280;59081;42.706;23.306;2024-03-02T17:17:11;94694.69;;;8.90;100.00
43934;BME280;59081;42.706;23.306;2024-03-02T17:22:22;94732.28;;;10.17;100.00
43934;BME280;59081;42.706;23.306;2024-03-02T17:32:32;94755.97;;;10.27;100.00
43934;BME280;59081;42.706;23.306;2024-03-02T17:37:37;94654.69;;;9.27;100.00
43934;BME280;59081;42.706;23.306;2024-03-02T17:47:52;94624.47;;;9.02;100.00
43934;BME280;59081;42.706;23.306;2024-03-02T17:52:53;94785.31;;;9.83;100.00
43934;BME280;59081;42.706;23.306;2024-03-02T17:57:57;94740.38;;;9.98;100.00
43934;BME280;59081;42.706;23.306;2024-03-02T18:35:32;94830.25;;;9.25;100.00
43934;BME280;59081;42.706;23.306;2024-03-02T21:13:52;94844.03;;;7.34;100.00
43934;BME280;59081;42.706;23.306;2024-03-02T21:29:34;94793.28;;;7.46;100.00
43934;BME280;59081;42.706;23.306;2024-03-02T21:56:39;94695.03;;;7.12;100.00
43934;BME280;59081;42.706;23.306;2024-03-02T22:24:02;94850.91;;;8.11;100.00
43934;BME280;59081;42.706;23.306;2024-03-02T22:29:19;94765.63;;;7.40;100.00
43934;BME280;59081;42.706;23.306;2024-03-02T22:34:25;94750.56;;;7.12;100.00
43934;BME280;59081;42.706;23.306;2024-03-02T22:49:56;94903.81;;;8.11;100.00
43934;BME280;59081;42.706;23.306;2024-03-02T23:00:12;94698.03;;;6.65;100.00
43934;BME280;59081;42.706;23.306;2024-03-02T23:11:30;94710.09;;;6.68;100.00
43934;BME280;59081;42.706;23.306;2024-03-02T23:16:40;94704.75;;;6.60;100.00
43934;BME280;59081;42.706;23.306;2024-03-02T23:21:48;94726.09;;;6.69;100.00
43934;BME280;59081;42.706;23.306;2024-03-02T23:26:52;94832.50;;;7.43;100.00
43934;BME280;59081;42.706;23.306;2024-03-02T23:31:55;94812.38;;;7.13;100.00
43934;BME280;59081;42.706;23.306;2024-03-02T23:36:59;94913.28;;;7.74;100.00
43934;BME280;59081;42.706;23.306;2024-03-02T23:42:08;94782.31;;;6.74;100.00
43934;BME280;59081;42.706;23.306;2024-03-02T23:47:12;94867.91;;;7.33;100.00
43934;BME280;59081;42.706;23.306;2024-03-02T23:52:22;94693.13;;;5.97;100.00
43934;BME280;59081;42.706;23.306;2024-03-02T23:57:24;94860.06;;;7.16;100.00
